sensor_id;sensor_type;location;lat;lon;timestamp;P1;durP1;ratioP1;P2;durP2;ratioP2
54193;SDS011;40102;50.906;6.972;2022-10-26T00:00:21;4.00;;;1.08;;
54193;SDS011;40102;50.906;6.972;2022-10-26T00:02:47;3.90;;;1.30;;
54193;SDS011;40102;50.906;6.972;2022-10-26T00:05:12;3.72;;;1.42;;
54193;SDS011;40102;50.906;6.972;2022-10-26T00:07:37;4.00;;;1.30;;
54193;SDS011;40102;50.906;6.972;2022-10-26T00:10:03;5.57;;;1.30;;
54193;SDS011;40102;50.906;6.972;2022-10-26T00:12:28;2.90;;;1.30;;
54193;SDS011;40102;50.906;6.972;2022-10-26T00:14:54;2.42;;;0.98;;
54193;SDS011;40102;50.906;6.972;2022-10-26T00:17:19;4.40;;;1.00;;
54193;SDS011;40102;50.906;6.972;2022-10-26T00:19:44;1.83;;;1.20;;
54193;SDS011;40102;50.906;6.972;2022-10-26T00:22:10;2.60;;;1.13;;
54193;SDS011;40102;50.906;6.972;2022-10-26T00:24:35;5.45;;;0.95;;
54193;SDS011;40102;50.906;6.972;2022-10-26T00:27:00;2.35;;;1.17;;
54193;SDS011;40102;50.906;6.972;2022-10-26T00:29:26;3.55;;;1.20;;
54193;SDS011;40102;50.906;6.972;2022-10-26T00:31:51;4.90;;;1.25;;
54193;SDS011;40102;50.906;6.972;2022-10-26T00:34:16;4.93;;;1.27;;
54193;SDS011;40102;50.906;6.972;2022-10-26T00:36:41;4.63;;;1.20;;
54193;SDS011;40102;50.906;6.972;2022-10-26T00:39:09;3.90;;;1.10;;
54193;SDS011;40102;50.906;6.972;2022-10-26T00:41:37;3.88;;;1.20;;
54193;SDS011;40102;50.906;6.972;2022-10-26T00:44:40;2.75;;;1.20;;
54193;SDS011;40102;50.906;6.972;2022-10-26T00:47:08;4.45;;;1.50;;
54193;SDS011;40102;50.906;6.972;2022-10-26T00:49:36;2.67;;;1.05;;
54193;SDS011;40102;50.906;6.972;2022-10-26T00:52:02;3.00;;;1.42;;
54193;SDS011;40102;50.906;6.972;2022-10-26T00:54:28;2.10;;;1.15;;
54193;SDS011;40102;50.906;6.972;2022-10-26T00:56:53;2.72;;;1.25;;
54193;SDS011;40102;50.906;6.972;2022-10-26T00:59:19;1.85;;;1.15;;
54193;SDS011;40102;50.906;6.972;2022-10-26T01:01:46;2.40;;;1.30;;
54193;SDS011;40102;50.906;6.972;2022-10-26T01:04:15;4.28;;;1.10;;
54193;SDS011;40102;50.906;6.972;2022-10-26T01:06:40;2.15;;;1.08;;
54193;SDS011;40102;50.906;6.972;2022-10-26T01:09:07;6.97;;;1.23;;
54193;SDS011;40102;50.906;6.972;2022-10-26T01:11:33;1.23;;;1.00;;
54193;SDS011;40102;50.906;6.972;2022-10-26T01:13:59;6.22;;;1.40;;
54193;SDS011;40102;50.906;6.972;2022-10-26T01:21:56;3.72;;;1.25;;
54193;SDS011;40102;50.906;6.972;2022-10-26T01:41:03;5.22;;;1.20;;
54193;SDS011;40102;50.906;6.972;2022-10-26T01:43:38;3.17;;;1.27;;
54193;SDS011;40102;50.906;6.972;2022-10-26T01:46:06;3.42;;;0.95;;
54193;SDS011;40102;50.906;6.972;2022-10-26T01:48:33;2.35;;;1.10;;
54193;SDS011;40102;50.906;6.972;2022-10-26T01:51:02;6.68;;;1.40;;
54193;SDS011;40102;50.906;6.972;2022-10-26T01:53:30;2.08;;;1.17;;
54193;SDS011;40102;50.906;6.972;2022-10-26T01:55:55;2.15;;;1.00;;
54193;SDS011;40102;50.906;6.972;2022-10-26T02:03:49;4.00;;;1.13;;
54193;SDS011;40102;50.906;6.972;2022-10-26T02:11:52;4.10;;;1.25;;
54193;SDS011;40102;50.906;6.972;2022-10-26T02:14:20;4.25;;;1.17;;
54193;SDS011;40102;50.906;6.972;2022-10-26T02:16:53;1.50;;;1.10;;
54193;SDS011;40102;50.906;6.972;2022-10-26T02:19:32;2.10;;;1.40;;
54193;SDS011;40102;50.906;6.972;2022-10-26T02:22:05;4.13;;;1.17;;
54193;SDS011;40102;50.906;6.972;2022-10-26T02:24:37;4.97;;;0.98;;
54193;SDS011;40102;50.906;6.972;2022-10-26T02:27:05;3.83;;;1.20;;
54193;SDS011;40102;50.906;6.972;2022-10-26T02:29:35;2.00;;;1.00;;
54193;SDS011;40102;50.906;6.972;2022-10-26T02:32:04;2.90;;;0.90;;
54193;SDS011;40102;50.906;6.972;2022-10-26T02:34:32;5.35;;;1.02;;
54193;SDS011;40102;50.906;6.972;2022-10-26T02:37:00;2.65;;;0.98;;
54193;SDS011;40102;50.906;6.972;2022-10-26T02:39:28;2.78;;;1.10;;
54193;SDS011;40102;50.906;6.972;2022-10-26T02:41:57;2.65;;;1.38;;
54193;SDS011;40102;50.906;6.972;2022-10-26T02:44:26;7.38;;;1.25;;
54193;SDS011;40102;50.906;6.972;2022-10-26T02:46:56;9.60;;;1.30;;
54193;SDS011;40102;50.906;6.972;2022-10-26T02:49:22;3.83;;;1.33;;
54193;SDS011;40102;50.906;6.972;2022-10-26T02:51:49;3.60;;;0.90;;
54193;SDS011;40102;50.906;6.972;2022-10-26T02:54:18;2.33;;;1.17;;
54193;SDS011;40102;50.906;6.972;2022-10-26T02:57:08;5.32;;;1.13;;
54193;SDS011;40102;50.906;6.972;2022-10-26T02:59:39;7.40;;;1.15;;
54193;SDS011;40102;50.906;6.972;2022-10-26T03:02:07;6.80;;;1.50;;
54193;SDS011;40102;50.906;6.972;2022-10-26T03:04:33;2.80;;;1.20;;
54193;SDS011;40102;50.906;6.972;2022-10-26T03:06:59;4.13;;;1.27;;
54193;SDS011;40102;50.906;6.972;2022-10-26T03:09:25;4.70;;;1.30;;
54193;SDS011;40102;50.906;6.972;2022-10-26T03:11:51;4.38;;;1.20;;
54193;SDS011;40102;50.906;6.972;2022-10-26T03:14:17;5.43;;;1.25;;
54193;SDS011;40102;50.906;6.972;2022-10-26T03:16:42;1.77;;;0.90;;
54193;SDS011;40102;50.906;6.972;2022-10-26T03:19:08;4.65;;;1.23;;
54193;SDS011;40102;50.906;6.972;2022-10-26T03:21:33;4.30;;;1.20;;
54193;SDS011;40102;50.906;6.972;2022-10-26T03:23:58;3.47;;;1.20;;
54193;SDS011;40102;50.906;6.972;2022-10-26T03:26:24;2.35;;;1.10;;
54193;SDS011;40102;50.906;6.972;2022-10-26T03:28:49;13.10;;;1.60;;
54193;SDS011;40102;50.906;6.972;2022-10-26T03:31:14;3.80;;;1.40;;
54193;SDS011;40102;50.906;6.972;2022-10-26T03:33:40;3.58;;;1.30;;
54193;SDS011;40102;50.906;6.972;2022-10-26T03:36:05;10.85;;;2.42;;
54193;SDS011;40102;50.906;6.972;2022-10-26T03:38:31;3.42;;;1.33;;
54193;SDS011;40102;50.906;6.972;2022-10-26T03:40:57;3.80;;;1.50;;
54193;SDS011;40102;50.906;6.972;2022-10-26T03:43:22;5.50;;;1.17;;
54193;SDS011;40102;50.906;6.972;2022-10-26T03:45:47;4.10;;;1.17;;
54193;SDS011;40102;50.906;6.972;2022-10-26T03:48:13;3.63;;;1.20;;
54193;SDS011;40102;50.906;6.972;2022-10-26T03:50:38;3.90;;;1.40;;
54193;SDS011;40102;50.906;6.972;2022-10-26T03:53:03;4.18;;;1.70;;
54193;SDS011;40102;50.906;6.972;2022-10-26T03:55:29;6.03;;;1.33;;
54193;SDS011;40102;50.906;6.972;2022-10-26T03:57:54;5.88;;;1.40;;
54193;SDS011;40102;50.906;6.972;2022-10-26T04:00:19;7.30;;;1.52;;
54193;SDS011;40102;50.906;6.972;2022-10-26T04:02:45;4.90;;;1.40;;
54193;SDS011;40102;50.906;6.972;2022-10-26T04:05:18;10.75;;;1.42;;
54193;SDS011;40102;50.906;6.972;2022-10-26T04:07:43;4.75;;;1.00;;
54193;SDS011;40102;50.906;6.972;2022-10-26T04:10:15;4.38;;;1.20;;
54193;SDS011;40102;50.906;6.972;2022-10-26T04:12:40;3.67;;;1.10;;
54193;SDS011;40102;50.906;6.972;2022-10-26T04:15:06;3.55;;;1.08;;
54193;SDS011;40102;50.906;6.972;2022-10-26T04:17:31;8.30;;;1.45;;
54193;SDS011;40102;50.906;6.972;2022-10-26T04:19:57;3.42;;;1.40;;
54193;SDS011;40102;50.906;6.972;2022-10-26T04:22:22;3.88;;;1.25;;
54193;SDS011;40102;50.906;6.972;2022-10-26T04:24:47;1.88;;;1.10;;
54193;SDS011;40102;50.906;6.972;2022-10-26T04:27:14;9.32;;;1.52;;
54193;SDS011;40102;50.906;6.972;2022-10-26T04:29:39;5.40;;;1.17;;
54193;SDS011;40102;50.906;6.972;2022-10-26T04:32:04;4.70;;;1.10;;
54193;SDS011;40102;50.906;6.972;2022-10-26T04:34:31;3.95;;;1.30;;
54193;SDS011;40102;50.906;6.972;2022-10-26T04:36:56;5.97;;;1.23;;
54193;SDS011;40102;50.906;6.972;2022-10-26T04:39:22;4.35;;;1.40;;
54193;SDS011;40102;50.906;6.972;2022-10-26T04:41:47;4.95;;;1.30;;
54193;SDS011;40102;50.906;6.972;2022-10-26T04:44:12;4.35;;;1.25;;
54193;SDS011;40102;50.906;6.972;2022-10-26T04:46:38;3.83;;;1.55;;
54193;SDS011;40102;50.906;6.972;2022-10-26T04:49:03;4.28;;;1.20;;
54193;SDS011;40102;50.906;6.972;2022-10-26T04:51:28;6.30;;;2.03;;
54193;SDS011;40102;50.906;6.972;2022-10-26T04:53:54;2.75;;;1.20;;
54193;SDS011;40102;50.906;6.972;2022-10-26T04:56:22;3.60;;;1.20;;
54193;SDS011;40102;50.906;6.972;2022-10-26T04:58:48;4.18;;;1.20;;
54193;SDS011;40102;50.906;6.972;2022-10-26T05:01:13;3.42;;;1.20;;
54193;SDS011;40102;50.906;6.972;2022-10-26T05:03:41;4.38;;;1.10;;
54193;SDS011;40102;50.906;6.972;2022-10-26T05:06:07;2.40;;;1.10;;
54193;SDS011;40102;50.906;6.972;2022-10-26T05:08:32;4.22;;;1.33;;
54193;SDS011;40102;50.906;6.972;2022-10-26T05:10:58;3.35;;;1.20;;
54193;SDS011;40102;50.906;6.972;2022-10-26T05:13:23;2.28;;;1.02;;
54193;SDS011;40102;50.906;6.972;2022-10-26T05:15:51;3.33;;;1.20;;
54193;SDS011;40102;50.906;6.972;2022-10-26T05:18:19;3.47;;;1.10;;
54193;SDS011;40102;50.906;6.972;2022-10-26T05:20:45;1.90;;;0.95;;
54193;SDS011;40102;50.906;6.972;2022-10-26T05:23:13;4.65;;;1.38;;
54193;SDS011;40102;50.906;6.972;2022-10-26T05:25:42;3.63;;;1.30;;
54193;SDS011;40102;50.906;6.972;2022-10-26T05:28:08;2.95;;;1.23;;
54193;SDS011;40102;50.906;6.972;2022-10-26T05:30:42;2.80;;;0.98;;
54193;SDS011;40102;50.906;6.972;2022-10-26T05:33:11;5.32;;;1.55;;
54193;SDS011;40102;50.906;6.972;2022-10-26T05:35:38;4.35;;;1.20;;
54193;SDS011;40102;50.906;6.972;2022-10-26T05:38:11;2.53;;;1.08;;
54193;SDS011;40102;50.906;6.972;2022-10-26T05:40:45;3.28;;;1.27;;
54193;SDS011;40102;50.906;6.972;2022-10-26T05:43:11;3.45;;;1.23;;
54193;SDS011;40102;50.906;6.972;2022-10-26T05:45:38;5.35;;;1.30;;
54193;SDS011;40102;50.906;6.972;2022-10-26T05:48:03;2.22;;;1.02;;
54193;SDS011;40102;50.906;6.972;2022-10-26T05:50:29;6.20;;;1.13;;
54193;SDS011;40102;50.906;6.972;2022-10-26T05:52:54;3.97;;;1.33;;
54193;SDS011;40102;50.906;6.972;2022-10-26T05:55:20;4.80;;;1.45;;
54193;SDS011;40102;50.906;6.972;2022-10-26T05:57:46;13.18;;;2.40;;
54193;SDS011;40102;50.906;6.972;2022-10-26T06:00:18;6.10;;;1.90;;
54193;SDS011;40102;50.906;6.972;2022-10-26T06:05:27;5.88;;;1.65;;
54193;SDS011;40102;50.906;6.972;2022-10-26T06:07:57;2.90;;;1.25;;
54193;SDS011;40102;50.906;6.972;2022-10-26T06:10:22;3.25;;;1.50;;
54193;SDS011;40102;50.906;6.972;2022-10-26T06:12:48;3.33;;;1.20;;
54193;SDS011;40102;50.906;6.972;2022-10-26T06:15:18;4.93;;;1.20;;
54193;SDS011;40102;50.906;6.972;2022-10-26T06:20:22;3.15;;;1.35;;
54193;SDS011;40102;50.906;6.972;2022-10-26T06:31:12;5.97;;;1.40;;
54193;SDS011;40102;50.906;6.972;2022-10-26T06:33:38;5.88;;;2.03;;
54193;SDS011;40102;50.906;6.972;2022-10-26T06:38:29;3.58;;;1.77;;
54193;SDS011;40102;50.906;6.972;2022-10-26T06:40:58;3.28;;;1.42;;
54193;SDS011;40102;50.906;6.972;2022-10-26T06:43:31;4.40;;;1.27;;
54193;SDS011;40102;50.906;6.972;2022-10-26T06:48:43;4.93;;;1.48;;
54193;SDS011;40102;50.906;6.972;2022-10-26T06:51:15;5.10;;;2.10;;
54193;SDS011;40102;50.906;6.972;2022-10-26T06:53:52;7.03;;;2.78;;
54193;SDS011;40102;50.906;6.972;2022-10-26T06:56:24;6.13;;;2.47;;
54193;SDS011;40102;50.906;6.972;2022-10-26T06:58:51;8.43;;;2.95;;
54193;SDS011;40102;50.906;6.972;2022-10-26T07:01:19;6.22;;;2.45;;
54193;SDS011;40102;50.906;6.972;2022-10-26T07:03:45;7.80;;;2.75;;
54193;SDS011;40102;50.906;6.972;2022-10-26T07:06:10;4.57;;;2.60;;
54193;SDS011;40102;50.906;6.972;2022-10-26T07:08:35;5.97;;;2.63;;
54193;SDS011;40102;50.906;6.972;2022-10-26T07:11:01;5.80;;;1.75;;
54193;SDS011;40102;50.906;6.972;2022-10-26T07:13:26;4.45;;;1.90;;
54193;SDS011;40102;50.906;6.972;2022-10-26T07:15:51;3.33;;;1.85;;
54193;SDS011;40102;50.906;6.972;2022-10-26T07:18:17;9.50;;;1.95;;
54193;SDS011;40102;50.906;6.972;2022-10-26T07:20:42;6.15;;;2.08;;
54193;SDS011;40102;50.906;6.972;2022-10-26T07:23:08;12.23;;;1.90;;
54193;SDS011;40102;50.906;6.972;2022-10-26T07:25:37;4.88;;;2.30;;
54193;SDS011;40102;50.906;6.972;2022-10-26T07:28:04;2.97;;;1.85;;
54193;SDS011;40102;50.906;6.972;2022-10-26T07:30:31;8.77;;;2.20;;
54193;SDS011;40102;50.906;6.972;2022-10-26T07:35:29;4.82;;;1.90;;
54193;SDS011;40102;50.906;6.972;2022-10-26T07:37:55;4.60;;;1.75;;
54193;SDS011;40102;50.906;6.972;2022-10-26T07:40:21;6.65;;;2.00;;
54193;SDS011;40102;50.906;6.972;2022-10-26T07:42:47;6.32;;;2.15;;
54193;SDS011;40102;50.906;6.972;2022-10-26T07:45:12;6.00;;;2.00;;
54193;SDS011;40102;50.906;6.972;2022-10-26T07:47:38;5.50;;;2.10;;
54193;SDS011;40102;50.906;6.972;2022-10-26T07:50:03;5.60;;;2.33;;
54193;SDS011;40102;50.906;6.972;2022-10-26T07:52:29;6.78;;;3.50;;
54193;SDS011;40102;50.906;6.972;2022-10-26T07:54:55;5.82;;;2.00;;
54193;SDS011;40102;50.906;6.972;2022-10-26T07:57:20;4.85;;;2.10;;
54193;SDS011;40102;50.906;6.972;2022-10-26T07:59:45;11.48;;;2.33;;
54193;SDS011;40102;50.906;6.972;2022-10-26T08:02:11;5.60;;;2.10;;
54193;SDS011;40102;50.906;6.972;2022-10-26T08:04:36;4.35;;;1.80;;
54193;SDS011;40102;50.906;6.972;2022-10-26T08:07:01;4.13;;;2.00;;
54193;SDS011;40102;50.906;6.972;2022-10-26T08:09:27;10.32;;;1.80;;
54193;SDS011;40102;50.906;6.972;2022-10-26T08:11:52;4.07;;;2.50;;
54193;SDS011;40102;50.906;6.972;2022-10-26T08:14:17;11.98;;;2.50;;
54193;SDS011;40102;50.906;6.972;2022-10-26T08:16:43;4.63;;;1.85;;
54193;SDS011;40102;50.906;6.972;2022-10-26T08:19:08;9.35;;;2.45;;
54193;SDS011;40102;50.906;6.972;2022-10-26T08:21:34;4.97;;;2.17;;
54193;SDS011;40102;50.906;6.972;2022-10-26T08:23:59;5.13;;;1.88;;
54193;SDS011;40102;50.906;6.972;2022-10-26T08:26:24;8.90;;;2.05;;
54193;SDS011;40102;50.906;6.972;2022-10-26T08:28:50;5.32;;;1.90;;
54193;SDS011;40102;50.906;6.972;2022-10-26T08:31:15;8.85;;;1.90;;
54193;SDS011;40102;50.906;6.972;2022-10-26T08:33:40;3.33;;;1.67;;
54193;SDS011;40102;50.906;6.972;2022-10-26T08:36:06;4.72;;;1.80;;
54193;SDS011;40102;50.906;6.972;2022-10-26T08:38:31;3.70;;;1.48;;
54193;SDS011;40102;50.906;6.972;2022-10-26T08:40:57;3.00;;;1.48;;
54193;SDS011;40102;50.906;6.972;2022-10-26T08:43:30;3.50;;;1.63;;
54193;SDS011;40102;50.906;6.972;2022-10-26T08:46:03;6.80;;;1.80;;
54193;SDS011;40102;50.906;6.972;2022-10-26T08:48:37;4.68;;;1.80;;
54193;SDS011;40102;50.906;6.972;2022-10-26T08:51:14;6.78;;;1.80;;
54193;SDS011;40102;50.906;6.972;2022-10-26T08:53:58;4.45;;;1.40;;
54193;SDS011;40102;50.906;6.972;2022-10-26T08:56:26;5.53;;;1.60;;
54193;SDS011;40102;50.906;6.972;2022-10-26T08:59:23;7.18;;;1.48;;
54193;SDS011;40102;50.906;6.972;2022-10-26T09:01:52;5.60;;;1.53;;
54193;SDS011;40102;50.906;6.972;2022-10-26T09:04:19;3.60;;;1.40;;
54193;SDS011;40102;50.906;6.972;2022-10-26T09:06:51;4.60;;;1.75;;
54193;SDS011;40102;50.906;6.972;2022-10-26T09:18:06;3.40;;;1.50;;
54193;SDS011;40102;50.906;6.972;2022-10-26T09:25:58;3.90;;;1.67;;
54193;SDS011;40102;50.906;6.972;2022-10-26T09:28:25;5.05;;;1.60;;
54193;SDS011;40102;50.906;6.972;2022-10-26T09:30:54;2.60;;;1.40;;
54193;SDS011;40102;50.906;6.972;2022-10-26T09:33:23;6.25;;;1.50;;
54193;SDS011;40102;50.906;6.972;2022-10-26T09:35:51;4.70;;;1.80;;
54193;SDS011;40102;50.906;6.972;2022-10-26T09:38:30;5.25;;;1.50;;
54193;SDS011;40102;50.906;6.972;2022-10-26T09:41:01;2.55;;;1.50;;
54193;SDS011;40102;50.906;6.972;2022-10-26T09:43:45;4.28;;;1.65;;
54193;SDS011;40102;50.906;6.972;2022-10-26T09:46:17;4.60;;;1.50;;
54193;SDS011;40102;50.906;6.972;2022-10-26T09:49:05;5.40;;;1.55;;
54193;SDS011;40102;50.906;6.972;2022-10-26T09:51:34;3.88;;;1.52;;
54193;SDS011;40102;50.906;6.972;2022-10-26T09:54:03;3.35;;;1.70;;
54193;SDS011;40102;50.906;6.972;2022-10-26T09:56:52;3.65;;;1.40;;
54193;SDS011;40102;50.906;6.972;2022-10-26T09:59:23;3.92;;;1.50;;
54193;SDS011;40102;50.906;6.972;2022-10-26T10:01:50;8.00;;;1.80;;
54193;SDS011;40102;50.906;6.972;2022-10-26T10:04:17;4.85;;;1.40;;
54193;SDS011;40102;50.906;6.972;2022-10-26T10:09:26;6.10;;;1.63;;
54193;SDS011;40102;50.906;6.972;2022-10-26T10:14:29;4.90;;;1.83;;
54193;SDS011;40102;50.906;6.972;2022-10-26T10:19:27;3.80;;;1.70;;
54193;SDS011;40102;50.906;6.972;2022-10-26T10:22:11;3.35;;;1.73;;
54193;SDS011;40102;50.906;6.972;2022-10-26T10:24:53;5.78;;;1.60;;
54193;SDS011;40102;50.906;6.972;2022-10-26T10:27:20;4.30;;;1.67;;
54193;SDS011;40102;50.906;6.972;2022-10-26T10:32:59;4.15;;;1.85;;
54193;SDS011;40102;50.906;6.972;2022-10-26T10:38:38;3.85;;;1.50;;
54193;SDS011;40102;50.906;6.972;2022-10-26T10:41:05;5.57;;;1.75;;
54193;SDS011;40102;50.906;6.972;2022-10-26T10:44:11;7.05;;;1.98;;
54193;SDS011;40102;50.906;6.972;2022-10-26T10:46:40;2.60;;;1.60;;
54193;SDS011;40102;50.906;6.972;2022-10-26T10:49:06;4.82;;;1.85;;
54193;SDS011;40102;50.906;6.972;2022-10-26T10:52:00;3.92;;;1.70;;
54193;SDS011;40102;50.906;6.972;2022-10-26T10:54:31;5.57;;;1.23;;
54193;SDS011;40102;50.906;6.972;2022-10-26T10:59:38;4.88;;;1.50;;
54193;SDS011;40102;50.906;6.972;2022-10-26T11:05:32;5.45;;;1.50;;
54193;SDS011;40102;50.906;6.972;2022-10-26T11:08:16;2.63;;;1.60;;
54193;SDS011;40102;50.906;6.972;2022-10-26T11:10:57;4.55;;;1.55;;
54193;SDS011;40102;50.906;6.972;2022-10-26T11:13:25;3.95;;;1.38;;
54193;SDS011;40102;50.906;6.972;2022-10-26T11:15:58;5.68;;;1.70;;
54193;SDS011;40102;50.906;6.972;2022-10-26T11:18:39;7.13;;;1.60;;
54193;SDS011;40102;50.906;6.972;2022-10-26T11:21:35;6.28;;;1.67;;
54193;SDS011;40102;50.906;6.972;2022-10-26T11:24:08;3.03;;;1.45;;
54193;SDS011;40102;50.906;6.972;2022-10-26T11:26:44;8.20;;;1.70;;
54193;SDS011;40102;50.906;6.972;2022-10-26T11:35:15;3.45;;;0.80;;
54193;SDS011;40102;50.906;6.972;2022-10-26T11:37:51;1.90;;;1.15;;
54193;SDS011;40102;50.906;6.972;2022-10-26T11:40:29;1.60;;;0.60;;
54193;SDS011;40102;50.906;6.972;2022-10-26T11:43:24;2.42;;;0.60;;
54193;SDS011;40102;50.906;6.972;2022-10-26T11:48:36;3.40;;;0.63;;
54193;SDS011;40102;50.906;6.972;2022-10-26T11:51:14;2.72;;;0.80;;
54193;SDS011;40102;50.906;6.972;2022-10-26T11:53:44;3.45;;;0.60;;
54193;SDS011;40102;50.906;6.972;2022-10-26T11:56:15;0.98;;;0.60;;
54193;SDS011;40102;50.906;6.972;2022-10-26T11:58:51;2.40;;;0.68;;
54193;SDS011;40102;50.906;6.972;2022-10-26T12:01:20;2.33;;;0.80;;
54193;SDS011;40102;50.906;6.972;2022-10-26T12:03:49;2.20;;;0.70;;
54193;SDS011;40102;50.906;6.972;2022-10-26T12:06:19;0.93;;;0.73;;
54193;SDS011;40102;50.906;6.972;2022-10-26T12:08:52;2.28;;;0.60;;
54193;SDS011;40102;50.906;6.972;2022-10-26T12:11:33;3.55;;;0.77;;
54193;SDS011;40102;50.906;6.972;2022-10-26T12:17:36;0.90;;;0.50;;
54193;SDS011;40102;50.906;6.972;2022-10-26T12:23:15;2.53;;;0.85;;
54193;SDS011;40102;50.906;6.972;2022-10-26T12:25:45;2.45;;;0.80;;
54193;SDS011;40102;50.906;6.972;2022-10-26T12:33:48;3.17;;;0.50;;
54193;SDS011;40102;50.906;6.972;2022-10-26T12:39:31;1.40;;;0.50;;
54193;SDS011;40102;50.906;6.972;2022-10-26T12:52:28;2.53;;;0.50;;
54193;SDS011;40102;50.906;6.972;2022-10-26T12:58:57;1.98;;;1.13;;
54193;SDS011;40102;50.906;6.972;2022-10-26T13:04:40;4.53;;;0.77;;
54193;SDS011;40102;50.906;6.972;2022-10-26T13:07:35;3.00;;;0.65;;
54193;SDS011;40102;50.906;6.972;2022-10-26T13:10:03;2.25;;;0.60;;
54193;SDS011;40102;50.906;6.972;2022-10-26T13:15:17;0.77;;;0.47;;
54193;SDS011;40102;50.906;6.972;2022-10-26T13:18:30;1.23;;;0.45;;
54193;SDS011;40102;50.906;6.972;2022-10-26T13:23:34;2.80;;;0.50;;
54193;SDS011;40102;50.906;6.972;2022-10-26T13:26:09;2.78;;;0.43;;
54193;SDS011;40102;50.906;6.972;2022-10-26T13:31:02;0.90;;;0.50;;
54193;SDS011;40102;50.906;6.972;2022-10-26T13:33:35;1.48;;;0.50;;
54193;SDS011;40102;50.906;6.972;2022-10-26T13:36:11;3.20;;;0.50;;
54193;SDS011;40102;50.906;6.972;2022-10-26T13:38:53;2.45;;;0.50;;
54193;SDS011;40102;50.906;6.972;2022-10-26T13:41:24;2.80;;;0.40;;
54193;SDS011;40102;50.906;6.972;2022-10-26T13:43:57;1.25;;;0.50;;
54193;SDS011;40102;50.906;6.972;2022-10-26T13:48:56;1.42;;;0.50;;
54193;SDS011;40102;50.906;6.972;2022-10-26T13:51:34;1.10;;;0.35;;
54193;SDS011;40102;50.906;6.972;2022-10-26T13:59:32;2.97;;;0.50;;
54193;SDS011;40102;50.906;6.972;2022-10-26T14:02:06;2.35;;;0.50;;
54193;SDS011;40102;50.906;6.972;2022-10-26T14:04:40;0.73;;;0.50;;
54193;SDS011;40102;50.906;6.972;2022-10-26T14:07:10;2.63;;;0.50;;
54193;SDS011;40102;50.906;6.972;2022-10-26T14:09:41;1.48;;;0.50;;
54193;SDS011;40102;50.906;6.972;2022-10-26T14:12:08;1.40;;;0.50;;
54193;SDS011;40102;50.906;6.972;2022-10-26T14:14:35;2.25;;;0.40;;
54193;SDS011;40102;50.906;6.972;2022-10-26T14:17:19;1.15;;;0.47;;
54193;SDS011;40102;50.906;6.972;2022-10-26T14:19:46;1.35;;;0.50;;
54193;SDS011;40102;50.906;6.972;2022-10-26T14:22:25;2.03;;;0.50;;
54193;SDS011;40102;50.906;6.972;2022-10-26T14:24:56;2.83;;;0.50;;
54193;SDS011;40102;50.906;6.972;2022-10-26T14:27:24;0.82;;;0.38;;
54193;SDS011;40102;50.906;6.972;2022-10-26T14:29:51;2.08;;;0.40;;
54193;SDS011;40102;50.906;6.972;2022-10-26T14:32:26;1.52;;;0.50;;
54193;SDS011;40102;50.906;6.972;2022-10-26T14:34:59;2.00;;;0.47;;
54193;SDS011;40102;50.906;6.972;2022-10-26T14:40:18;1.50;;;0.70;;
54193;SDS011;40102;50.906;6.972;2022-10-26T14:42:50;0.98;;;0.40;;
54193;SDS011;40102;50.906;6.972;2022-10-26T14:47:59;3.80;;;0.95;;
54193;SDS011;40102;50.906;6.972;2022-10-26T14:50:26;3.30;;;0.60;;
54193;SDS011;40102;50.906;6.972;2022-10-26T14:53:02;1.38;;;0.57;;
54193;SDS011;40102;50.906;6.972;2022-10-26T14:55:47;1.50;;;0.50;;
54193;SDS011;40102;50.906;6.972;2022-10-26T14:58:17;0.73;;;0.38;;
54193;SDS011;40102;50.906;6.972;2022-10-26T15:01:12;0.80;;;0.40;;
54193;SDS011;40102;50.906;6.972;2022-10-26T15:03:54;1.25;;;0.57;;
54193;SDS011;40102;50.906;6.972;2022-10-26T15:08:55;1.25;;;0.65;;
54193;SDS011;40102;50.906;6.972;2022-10-26T15:11:23;2.35;;;0.88;;
54193;SDS011;40102;50.906;6.972;2022-10-26T15:13:52;2.95;;;0.50;;
54193;SDS011;40102;50.906;6.972;2022-10-26T15:16:20;1.27;;;0.50;;
54193;SDS011;40102;50.906;6.972;2022-10-26T15:18:46;1.08;;;0.50;;
54193;SDS011;40102;50.906;6.972;2022-10-26T15:21:36;3.60;;;0.73;;
54193;SDS011;40102;50.906;6.972;2022-10-26T15:24:19;2.20;;;0.60;;
54193;SDS011;40102;50.906;6.972;2022-10-26T15:26:51;1.92;;;0.65;;
54193;SDS011;40102;50.906;6.972;2022-10-26T15:32:01;1.35;;;0.60;;
54193;SDS011;40102;50.906;6.972;2022-10-26T15:34:27;1.02;;;0.50;;
54193;SDS011;40102;50.906;6.972;2022-10-26T15:36:53;1.65;;;0.50;;
54193;SDS011;40102;50.906;6.972;2022-10-26T15:39:18;2.03;;;0.73;;
54193;SDS011;40102;50.906;6.972;2022-10-26T15:41:44;1.75;;;0.80;;
54193;SDS011;40102;50.906;6.972;2022-10-26T15:44:12;3.03;;;0.80;;
54193;SDS011;40102;50.906;6.972;2022-10-26T15:46:40;0.83;;;0.50;;
54193;SDS011;40102;50.906;6.972;2022-10-26T15:49:06;6.20;;;0.60;;
54193;SDS011;40102;50.906;6.972;2022-10-26T15:51:38;0.85;;;0.50;;
54193;SDS011;40102;50.906;6.972;2022-10-26T15:54:03;2.53;;;0.60;;
54193;SDS011;40102;50.906;6.972;2022-10-26T15:56:29;2.95;;;0.70;;
54193;SDS011;40102;50.906;6.972;2022-10-26T15:58:55;1.38;;;0.60;;
54193;SDS011;40102;50.906;6.972;2022-10-26T16:01:22;0.70;;;0.50;;
54193;SDS011;40102;50.906;6.972;2022-10-26T16:03:48;1.30;;;0.60;;
54193;SDS011;40102;50.906;6.972;2022-10-26T16:06:16;2.20;;;0.70;;
54193;SDS011;40102;50.906;6.972;2022-10-26T16:08:51;3.15;;;0.60;;
54193;SDS011;40102;50.906;6.972;2022-10-26T16:11:19;1.30;;;0.68;;
54193;SDS011;40102;50.906;6.972;2022-10-26T16:13:44;1.48;;;0.50;;
54193;SDS011;40102;50.906;6.972;2022-10-26T16:16:11;1.35;;;0.60;;
54193;SDS011;40102;50.906;6.972;2022-10-26T16:18:38;2.30;;;0.90;;
54193;SDS011;40102;50.906;6.972;2022-10-26T16:21:03;2.15;;;0.80;;
54193;SDS011;40102;50.906;6.972;2022-10-26T16:23:29;3.03;;;0.70;;
54193;SDS011;40102;50.906;6.972;2022-10-26T16:25:54;1.27;;;0.70;;
54193;SDS011;40102;50.906;6.972;2022-10-26T16:28:20;1.25;;;0.68;;
54193;SDS011;40102;50.906;6.972;2022-10-26T16:30:45;1.98;;;0.80;;
54193;SDS011;40102;50.906;6.972;2022-10-26T16:33:11;0.98;;;0.75;;
54193;SDS011;40102;50.906;6.972;2022-10-26T16:35:36;2.25;;;0.80;;
54193;SDS011;40102;50.906;6.972;2022-10-26T16:38:02;1.55;;;0.80;;
54193;SDS011;40102;50.906;6.972;2022-10-26T16:40:27;0.98;;;0.60;;
54193;SDS011;40102;50.906;6.972;2022-10-26T16:42:52;1.20;;;0.70;;
54193;SDS011;40102;50.906;6.972;2022-10-26T16:45:18;1.33;;;0.50;;
54193;SDS011;40102;50.906;6.972;2022-10-26T16:47:43;0.82;;;0.60;;
54193;SDS011;40102;50.906;6.972;2022-10-26T16:50:09;2.53;;;0.70;;
54193;SDS011;40102;50.906;6.972;2022-10-26T16:52:36;1.23;;;0.70;;
54193;SDS011;40102;50.906;6.972;2022-10-26T16:55:03;1.95;;;0.70;;
54193;SDS011;40102;50.906;6.972;2022-10-26T16:57:31;1.65;;;0.73;;
54193;SDS011;40102;50.906;6.972;2022-10-26T16:59:56;0.85;;;0.60;;
54193;SDS011;40102;50.906;6.972;2022-10-26T17:02:22;1.80;;;0.77;;
54193;SDS011;40102;50.906;6.972;2022-10-26T17:04:48;3.75;;;0.70;;
54193;SDS011;40102;50.906;6.972;2022-10-26T17:07:13;1.10;;;0.77;;
54193;SDS011;40102;50.906;6.972;2022-10-26T17:09:39;2.10;;;0.88;;
54193;SDS011;40102;50.906;6.972;2022-10-26T17:12:04;2.13;;;0.80;;
54193;SDS011;40102;50.906;6.972;2022-10-26T17:14:30;1.50;;;0.70;;
54193;SDS011;40102;50.906;6.972;2022-10-26T17:16:59;1.20;;;0.70;;
54193;SDS011;40102;50.906;6.972;2022-10-26T17:19:25;4.97;;;1.00;;
54193;SDS011;40102;50.906;6.972;2022-10-26T17:21:50;2.28;;;0.63;;
54193;SDS011;40102;50.906;6.972;2022-10-26T17:24:16;1.77;;;0.80;;
54193;SDS011;40102;50.906;6.972;2022-10-26T17:26:42;0.80;;;0.63;;
54193;SDS011;40102;50.906;6.972;2022-10-26T17:29:08;2.33;;;0.88;;
54193;SDS011;40102;50.906;6.972;2022-10-26T17:31:35;2.53;;;0.80;;
54193;SDS011;40102;50.906;6.972;2022-10-26T17:34:01;2.25;;;0.82;;
54193;SDS011;40102;50.906;6.972;2022-10-26T17:36:26;1.83;;;0.85;;